sensor_id;sensor_type;location;lat;lon;timestamp;P1;durP1;ratioP1;P2;durP2;ratioP2
46653;SDS011;38960;51.074;17.004;2023-09-18T00:01:50;17.58;;;16.20;;
46653;SDS011;38960;51.074;17.004;2023-09-18T00:04:15;17.55;;;16.35;;
46653;SDS011;38960;51.074;17.004;2023-09-18T00:06:42;18.33;;;16.85;;
46653;SDS011;38960;51.074;17.004;2023-09-18T00:09:07;15.98;;;14.75;;
46653;SDS011;38960;51.074;17.004;2023-09-18T00:11:37;18.23;;;16.65;;
46653;SDS011;38960;51.074;17.004;2023-09-18T00:14:04;17.70;;;16.40;;
46653;SDS011;38960;51.074;17.004;2023-09-18T00:16:29;17.33;;;16.13;;
46653;SDS011;38960;51.074;17.004;2023-09-18T00:18:55;18.30;;;17.00;;
46653;SDS011;38960;51.074;17.004;2023-09-18T00:21:20;16.77;;;15.57;;
46653;SDS011;38960;51.074;17.004;2023-09-18T00:23:46;16.33;;;15.00;;
46653;SDS011;38960;51.074;17.004;2023-09-18T00:26:12;17.60;;;16.15;;
46653;SDS011;38960;51.074;17.004;2023-09-18T00:28:40;16.92;;;15.45;;
46653;SDS011;38960;51.074;17.004;2023-09-18T00:31:06;16.48;;;15.27;;
46653;SDS011;38960;51.074;17.004;2023-09-18T00:33:32;18.33;;;16.65;;
46653;SDS011;38960;51.074;17.004;2023-09-18T00:35:58;16.88;;;15.68;;
46653;SDS011;38960;51.074;17.004;2023-09-18T00:38:23;18.10;;;16.80;;
46653;SDS011;38960;51.074;17.004;2023-09-18T00:40:49;18.20;;;16.45;;
46653;SDS011;38960;51.074;17.004;2023-09-18T00:43:14;18.15;;;16.50;;
46653;SDS011;38960;51.074;17.004;2023-09-18T00:45:41;17.35;;;16.00;;
46653;SDS011;38960;51.074;17.004;2023-09-18T00:48:09;18.45;;;17.08;;
46653;SDS011;38960;51.074;17.004;2023-09-18T00:50:35;18.13;;;16.88;;
46653;SDS011;38960;51.074;17.004;2023-09-18T00:53:01;19.50;;;17.73;;
46653;SDS011;38960;51.074;17.004;2023-09-18T00:55:27;17.15;;;15.95;;
46653;SDS011;38960;51.074;17.004;2023-09-18T00:57:54;19.20;;;17.55;;
46653;SDS011;38960;51.074;17.004;2023-09-18T01:00:20;19.30;;;17.27;;
46653;SDS011;38960;51.074;17.004;2023-09-18T01:02:47;19.33;;;17.58;;
46653;SDS011;38960;51.074;17.004;2023-09-18T01:05:13;19.15;;;17.65;;
46653;SDS011;38960;51.074;17.004;2023-09-18T01:07:41;20.10;;;18.35;;
46653;SDS011;38960;51.074;17.004;2023-09-18T01:10:08;19.98;;;18.17;;
46653;SDS011;38960;51.074;17.004;2023-09-18T01:12:44;21.23;;;19.13;;
46653;SDS011;38960;51.074;17.004;2023-09-18T01:15:16;11.55;;;10.43;;
46653;SDS011;38960;51.074;17.004;2023-09-18T01:17:43;9.88;;;7.70;;
46653;SDS011;38960;51.074;17.004;2023-09-18T01:20:10;9.82;;;7.70;;
46653;SDS011;38960;51.074;17.004;2023-09-18T01:22:36;9.85;;;7.55;;
46653;SDS011;38960;51.074;17.004;2023-09-18T01:25:02;13.27;;;9.68;;
46653;SDS011;38960;51.074;17.004;2023-09-18T01:27:28;25.88;;;23.88;;
46653;SDS011;38960;51.074;17.004;2023-09-18T01:29:54;26.23;;;24.00;;
46653;SDS011;38960;51.074;17.004;2023-09-18T01:32:19;24.85;;;22.90;;
46653;SDS011;38960;51.074;17.004;2023-09-18T01:34:50;26.08;;;23.65;;
46653;SDS011;38960;51.074;17.004;2023-09-18T01:37:19;25.45;;;23.30;;
46653;SDS011;38960;51.074;17.004;2023-09-18T01:39:46;23.08;;;21.13;;
46653;SDS011;38960;51.074;17.004;2023-09-18T01:42:13;28.98;;;26.23;;
46653;SDS011;38960;51.074;17.004;2023-09-18T01:44:39;26.15;;;24.15;;
46653;SDS011;38960;51.074;17.004;2023-09-18T01:47:12;27.65;;;24.70;;
46653;SDS011;38960;51.074;17.004;2023-09-18T01:49:40;30.67;;;27.98;;
46653;SDS011;38960;51.074;17.004;2023-09-18T01:52:07;35.15;;;31.95;;
46653;SDS011;38960;51.074;17.004;2023-09-18T01:54:33;36.60;;;33.17;;
46653;SDS011;38960;51.074;17.004;2023-09-18T01:56:59;35.65;;;32.47;;
46653;SDS011;38960;51.074;17.004;2023-09-18T01:59:26;34.38;;;31.00;;
46653;SDS011;38960;51.074;17.004;2023-09-18T02:01:52;38.45;;;34.75;;
46653;SDS011;38960;51.074;17.004;2023-09-18T02:04:19;26.88;;;24.27;;
46653;SDS011;38960;51.074;17.004;2023-09-18T02:06:45;19.48;;;18.00;;
46653;SDS011;38960;51.074;17.004;2023-09-18T02:09:12;21.00;;;19.40;;
46653;SDS011;38960;51.074;17.004;2023-09-18T02:11:38;32.22;;;29.33;;
46653;SDS011;38960;51.074;17.004;2023-09-18T02:14:06;28.95;;;26.35;;
46653;SDS011;38960;51.074;17.004;2023-09-18T02:16:35;25.45;;;23.10;;
46653;SDS011;38960;51.074;17.004;2023-09-18T02:19:08;27.92;;;23.67;;
46653;SDS011;38960;51.074;17.004;2023-09-18T02:21:36;23.90;;;22.10;;
46653;SDS011;38960;51.074;17.004;2023-09-18T02:24:02;24.55;;;21.77;;
46653;SDS011;38960;51.074;17.004;2023-09-18T02:26:29;23.85;;;21.85;;
46653;SDS011;38960;51.074;17.004;2023-09-18T02:28:56;27.20;;;25.20;;
46653;SDS011;38960;51.074;17.004;2023-09-18T02:31:22;21.55;;;19.55;;
46653;SDS011;38960;51.074;17.004;2023-09-18T02:33:48;31.75;;;29.17;;
46653;SDS011;38960;51.074;17.004;2023-09-18T02:36:14;31.00;;;28.23;;
46653;SDS011;38960;51.074;17.004;2023-09-18T02:38:39;28.35;;;25.98;;
46653;SDS011;38960;51.074;17.004;2023-09-18T02:41:05;27.90;;;25.52;;
46653;SDS011;38960;51.074;17.004;2023-09-18T02:43:31;30.55;;;27.95;;
46653;SDS011;38960;51.074;17.004;2023-09-18T02:45:56;30.92;;;28.38;;
46653;SDS011;38960;51.074;17.004;2023-09-18T02:48:22;23.17;;;21.23;;
46653;SDS011;38960;51.074;17.004;2023-09-18T02:50:47;23.05;;;21.25;;
46653;SDS011;38960;51.074;17.004;2023-09-18T02:53:31;23.75;;;21.73;;
46653;SDS011;38960;51.074;17.004;2023-09-18T02:55:57;23.55;;;21.30;;
46653;SDS011;38960;51.074;17.004;2023-09-18T02:58:24;23.85;;;21.67;;
46653;SDS011;38960;51.074;17.004;2023-09-18T03:00:51;24.02;;;22.00;;
46653;SDS011;38960;51.074;17.004;2023-09-18T03:03:19;22.65;;;20.80;;
46653;SDS011;38960;51.074;17.004;2023-09-18T03:05:45;22.95;;;20.95;;
46653;SDS011;38960;51.074;17.004;2023-09-18T03:08:11;24.08;;;22.17;;
46653;SDS011;38960;51.074;17.004;2023-09-18T03:10:39;24.45;;;22.20;;
46653;SDS011;38960;51.074;17.004;2023-09-18T03:13:06;11.82;;;9.93;;
46653;SDS011;38960;51.074;17.004;2023-09-18T03:15:33;14.43;;;13.13;;
46653;SDS011;38960;51.074;17.004;2023-09-18T03:17:59;27.25;;;24.58;;
46653;SDS011;38960;51.074;17.004;2023-09-18T03:20:26;11.30;;;8.02;;
46653;SDS011;38960;51.074;17.004;2023-09-18T03:22:56;13.45;;;10.48;;
46653;SDS011;38960;51.074;17.004;2023-09-18T03:25:23;10.43;;;9.30;;
46653;SDS011;38960;51.074;17.004;2023-09-18T03:27:50;10.95;;;9.85;;
46653;SDS011;38960;51.074;17.004;2023-09-18T03:30:18;13.13;;;8.40;;
46653;SDS011;38960;51.074;17.004;2023-09-18T03:32:44;12.05;;;10.80;;
46653;SDS011;38960;51.074;17.004;2023-09-18T03:35:11;10.90;;;9.10;;
46653;SDS011;38960;51.074;17.004;2023-09-18T03:37:49;9.98;;;8.02;;
46653;SDS011;38960;51.074;17.004;2023-09-18T03:40:16;7.75;;;7.05;;
46653;SDS011;38960;51.074;17.004;2023-09-18T03:42:42;11.07;;;7.93;;
46653;SDS011;38960;51.074;17.004;2023-09-18T03:45:08;9.82;;;7.35;;
46653;SDS011;38960;51.074;17.004;2023-09-18T03:47:35;14.35;;;8.63;;
46653;SDS011;38960;51.074;17.004;2023-09-18T03:50:01;11.88;;;8.93;;
46653;SDS011;38960;51.074;17.004;2023-09-18T03:52:31;8.73;;;7.88;;
46653;SDS011;38960;51.074;17.004;2023-09-18T03:54:56;9.65;;;8.35;;
46653;SDS011;38960;51.074;17.004;2023-09-18T03:57:22;12.15;;;9.18;;
46653;SDS011;38960;51.074;17.004;2023-09-18T03:59:47;12.90;;;10.52;;
46653;SDS011;38960;51.074;17.004;2023-09-18T04:02:13;10.65;;;9.20;;
46653;SDS011;38960;51.074;17.004;2023-09-18T04:04:38;13.90;;;8.13;;
46653;SDS011;38960;51.074;17.004;2023-09-18T04:07:07;9.38;;;8.35;;
46653;SDS011;38960;51.074;17.004;2023-09-18T04:09:34;9.93;;;8.32;;
46653;SDS011;38960;51.074;17.004;2023-09-18T04:12:03;10.82;;;9.80;;
46653;SDS011;38960;51.074;17.004;2023-09-18T04:14:31;14.25;;;10.27;;
46653;SDS011;38960;51.074;17.004;2023-09-18T04:16:57;11.65;;;10.50;;
46653;SDS011;38960;51.074;17.004;2023-09-18T04:19:23;12.73;;;10.50;;
46653;SDS011;38960;51.074;17.004;2023-09-18T04:21:48;13.18;;;8.68;;
46653;SDS011;38960;51.074;17.004;2023-09-18T04:24:14;11.70;;;7.85;;
46653;SDS011;38960;51.074;17.004;2023-09-18T04:26:39;10.40;;;9.02;;
46653;SDS011;38960;51.074;17.004;2023-09-18T04:29:05;15.05;;;9.52;;
46653;SDS011;38960;51.074;17.004;2023-09-18T04:31:31;10.23;;;8.40;;
46653;SDS011;38960;51.074;17.004;2023-09-18T04:33:57;16.70;;;10.02;;
46653;SDS011;38960;51.074;17.004;2023-09-18T04:36:23;17.75;;;9.25;;
46653;SDS011;38960;51.074;17.004;2023-09-18T04:38:50;11.23;;;8.65;;
46653;SDS011;38960;51.074;17.004;2023-09-18T04:41:16;14.90;;;9.07;;
46653;SDS011;38960;51.074;17.004;2023-09-18T04:43:41;11.48;;;8.85;;
46653;SDS011;38960;51.074;17.004;2023-09-18T04:46:08;13.40;;;8.57;;
46653;SDS011;38960;51.074;17.004;2023-09-18T04:48:34;13.60;;;9.88;;
46653;SDS011;38960;51.074;17.004;2023-09-18T04:51:01;12.82;;;8.02;;
46653;SDS011;38960;51.074;17.004;2023-09-18T04:53:30;12.07;;;10.20;;
46653;SDS011;38960;51.074;17.004;2023-09-18T04:55:56;15.57;;;10.43;;
46653;SDS011;38960;51.074;17.004;2023-09-18T04:58:21;9.43;;;8.52;;
46653;SDS011;38960;51.074;17.004;2023-09-18T05:00:57;14.20;;;10.32;;
46653;SDS011;38960;51.074;17.004;2023-09-18T05:03:24;9.55;;;8.55;;
46653;SDS011;38960;51.074;17.004;2023-09-18T05:05:51;13.77;;;8.65;;
46653;SDS011;38960;51.074;17.004;2023-09-18T05:08:17;9.88;;;8.88;;
46653;SDS011;38960;51.074;17.004;2023-09-18T05:10:42;11.65;;;8.07;;
46653;SDS011;38960;51.074;17.004;2023-09-18T05:13:09;13.02;;;9.48;;
46653;SDS011;38960;51.074;17.004;2023-09-18T05:15:34;15.57;;;9.10;;
46653;SDS011;38960;51.074;17.004;2023-09-18T05:18:00;10.15;;;8.85;;
46653;SDS011;38960;51.074;17.004;2023-09-18T05:20:27;14.80;;;9.30;;
46653;SDS011;38960;51.074;17.004;2023-09-18T05:22:54;12.27;;;8.43;;
46653;SDS011;38960;51.074;17.004;2023-09-18T05:25:21;11.32;;;8.45;;
46653;SDS011;38960;51.074;17.004;2023-09-18T05:27:48;14.60;;;8.80;;
46653;SDS011;38960;51.074;17.004;2023-09-18T05:30:21;14.10;;;8.20;;
46653;SDS011;38960;51.074;17.004;2023-09-18T05:33:06;13.43;;;8.70;;
46653;SDS011;38960;51.074;17.004;2023-09-18T05:35:40;15.85;;;9.15;;
46653;SDS011;38960;51.074;17.004;2023-09-18T05:38:07;14.32;;;8.65;;
46653;SDS011;38960;51.074;17.004;2023-09-18T05:40:33;12.23;;;8.23;;
46653;SDS011;38960;51.074;17.004;2023-09-18T05:42:59;16.88;;;9.25;;
46653;SDS011;38960;51.074;17.004;2023-09-18T05:45:25;12.20;;;9.88;;
46653;SDS011;38960;51.074;17.004;2023-09-18T05:47:51;11.38;;;7.90;;
46653;SDS011;38960;51.074;17.004;2023-09-18T05:50:18;10.85;;;7.63;;
46653;SDS011;38960;51.074;17.004;2023-09-18T05:52:45;13.57;;;8.75;;
46653;SDS011;38960;51.074;17.004;2023-09-18T05:55:11;15.00;;;8.18;;
46653;SDS011;38960;51.074;17.004;2023-09-18T05:57:37;11.60;;;7.65;;
46653;SDS011;38960;51.074;17.004;2023-09-18T06:00:03;9.48;;;8.23;;
46653;SDS011;38960;51.074;17.004;2023-09-18T06:02:37;10.65;;;8.98;;
46653;SDS011;38960;51.074;17.004;2023-09-18T06:05:02;18.98;;;11.27;;
46653;SDS011;38960;51.074;17.004;2023-09-18T06:07:31;12.00;;;8.77;;
46653;SDS011;38960;51.074;17.004;2023-09-18T06:09:57;14.73;;;10.43;;
46653;SDS011;38960;51.074;17.004;2023-09-18T06:12:24;11.48;;;10.27;;
46653;SDS011;38960;51.074;17.004;2023-09-18T06:14:50;13.35;;;8.23;;
46653;SDS011;38960;51.074;17.004;2023-09-18T06:17:15;12.57;;;11.45;;
46653;SDS011;38960;51.074;17.004;2023-09-18T06:19:42;14.13;;;12.68;;
46653;SDS011;38960;51.074;17.004;2023-09-18T06:22:07;23.13;;;15.60;;
46653;SDS011;38960;51.074;17.004;2023-09-18T06:24:36;12.70;;;8.93;;
46653;SDS011;38960;51.074;17.004;2023-09-18T06:27:02;24.20;;;22.08;;
46653;SDS011;38960;51.074;17.004;2023-09-18T06:29:29;21.77;;;19.85;;
46653;SDS011;38960;51.074;17.004;2023-09-18T06:31:56;23.08;;;21.20;;
46653;SDS011;38960;51.074;17.004;2023-09-18T06:34:21;22.35;;;20.42;;
46653;SDS011;38960;51.074;17.004;2023-09-18T06:36:47;7.90;;;5.93;;
46653;SDS011;38960;51.074;17.004;2023-09-18T06:39:12;7.38;;;6.05;;
46653;SDS011;38960;51.074;17.004;2023-09-18T06:41:38;10.00;;;6.63;;
46653;SDS011;38960;51.074;17.004;2023-09-18T06:44:03;11.05;;;7.70;;
46653;SDS011;38960;51.074;17.004;2023-09-18T06:46:29;14.48;;;10.77;;
46653;SDS011;38960;51.074;17.004;2023-09-18T06:48:55;10.77;;;9.82;;
46653;SDS011;38960;51.074;17.004;2023-09-18T06:51:21;11.15;;;8.35;;
46653;SDS011;38960;51.074;17.004;2023-09-18T06:53:48;8.57;;;6.85;;
46653;SDS011;38960;51.074;17.004;2023-09-18T06:56:13;10.05;;;5.75;;
46653;SDS011;38960;51.074;17.004;2023-09-18T06:58:39;12.38;;;5.80;;
46653;SDS011;38960;51.074;17.004;2023-09-18T07:01:04;9.07;;;5.82;;
46653;SDS011;38960;51.074;17.004;2023-09-18T07:03:34;8.43;;;5.40;;
46653;SDS011;38960;51.074;17.004;2023-09-18T07:06:02;10.13;;;7.32;;
46653;SDS011;38960;51.074;17.004;2023-09-18T07:08:29;7.25;;;6.55;;
46653;SDS011;38960;51.074;17.004;2023-09-18T07:10:55;9.13;;;6.63;;
46653;SDS011;38960;51.074;17.004;2023-09-18T07:13:20;8.13;;;6.82;;
46653;SDS011;38960;51.074;17.004;2023-09-18T07:15:46;7.93;;;6.18;;
46653;SDS011;38960;51.074;17.004;2023-09-18T07:18:13;6.70;;;6.10;;
46653;SDS011;38960;51.074;17.004;2023-09-18T07:20:45;8.63;;;7.60;;
46653;SDS011;38960;51.074;17.004;2023-09-18T07:23:11;7.57;;;6.72;;
46653;SDS011;38960;51.074;17.004;2023-09-18T07:25:37;7.53;;;6.60;;
46653;SDS011;38960;51.074;17.004;2023-09-18T07:28:10;9.52;;;5.90;;
46653;SDS011;38960;51.074;17.004;2023-09-18T07:30:41;8.00;;;6.90;;
46653;SDS011;38960;51.074;17.004;2023-09-18T07:33:07;8.93;;;8.10;;
46653;SDS011;38960;51.074;17.004;2023-09-18T07:35:32;10.10;;;8.45;;
46653;SDS011;38960;51.074;17.004;2023-09-18T07:37:57;15.65;;;12.30;;
46653;SDS011;38960;51.074;17.004;2023-09-18T07:40:23;12.15;;;11.07;;
46653;SDS011;38960;51.074;17.004;2023-09-18T07:42:48;12.90;;;11.70;;
46653;SDS011;38960;51.074;17.004;2023-09-18T07:45:14;12.10;;;10.90;;
46653;SDS011;38960;51.074;17.004;2023-09-18T07:47:40;10.82;;;9.77;;
46653;SDS011;38960;51.074;17.004;2023-09-18T07:50:05;11.02;;;9.30;;
46653;SDS011;38960;51.074;17.004;2023-09-18T07:52:31;8.48;;;6.45;;
46653;SDS011;38960;51.074;17.004;2023-09-18T07:54:57;18.27;;;6.97;;
46653;SDS011;38960;51.074;17.004;2023-09-18T07:57:23;12.95;;;11.82;;
46653;SDS011;38960;51.074;17.004;2023-09-18T07:59:49;18.83;;;17.40;;
46653;SDS011;38960;51.074;17.004;2023-09-18T08:02:15;12.68;;;11.32;;
46653;SDS011;38960;51.074;17.004;2023-09-18T08:04:42;12.85;;;11.88;;
46653;SDS011;38960;51.074;17.004;2023-09-18T08:07:08;12.50;;;11.32;;
46653;SDS011;38960;51.074;17.004;2023-09-18T08:09:33;14.88;;;13.68;;
46653;SDS011;38960;51.074;17.004;2023-09-18T08:12:05;14.75;;;13.55;;
46653;SDS011;38960;51.074;17.004;2023-09-18T08:14:33;13.63;;;12.27;;
46653;SDS011;38960;51.074;17.004;2023-09-18T08:17:01;15.30;;;14.00;;
46653;SDS011;38960;51.074;17.004;2023-09-18T08:19:29;15.10;;;13.90;;
46653;SDS011;38960;51.074;17.004;2023-09-18T08:21:56;12.63;;;11.63;;
46653;SDS011;38960;51.074;17.004;2023-09-18T08:24:22;13.73;;;12.57;;
46653;SDS011;38960;51.074;17.004;2023-09-18T08:26:48;14.40;;;13.10;;
46653;SDS011;38960;51.074;17.004;2023-09-18T08:29:14;14.40;;;13.10;;
46653;SDS011;38960;51.074;17.004;2023-09-18T08:31:40;13.77;;;12.60;;
46653;SDS011;38960;51.074;17.004;2023-09-18T08:34:06;14.73;;;13.68;;
46653;SDS011;38960;51.074;17.004;2023-09-18T08:36:31;14.10;;;13.05;;
46653;SDS011;38960;51.074;17.004;2023-09-18T08:38:57;15.13;;;13.68;;
46653;SDS011;38960;51.074;17.004;2023-09-18T08:41:23;14.75;;;13.48;;
46653;SDS011;38960;51.074;17.004;2023-09-18T08:43:52;16.67;;;15.20;;
46653;SDS011;38960;51.074;17.004;2023-09-18T08:46:18;15.73;;;14.00;;
46653;SDS011;38960;51.074;17.004;2023-09-18T08:48:44;17.23;;;15.95;;
46653;SDS011;38960;51.074;17.004;2023-09-18T08:51:09;15.43;;;14.32;;
46653;SDS011;38960;51.074;17.004;2023-09-18T08:53:36;14.65;;;13.32;;
46653;SDS011;38960;51.074;17.004;2023-09-18T08:56:03;14.65;;;13.35;;
46653;SDS011;38960;51.074;17.004;2023-09-18T08:58:31;13.55;;;12.55;;
46653;SDS011;38960;51.074;17.004;2023-09-18T09:00:59;13.20;;;12.30;;
46653;SDS011;38960;51.074;17.004;2023-09-18T09:03:26;14.57;;;12.35;;
46653;SDS011;38960;51.074;17.004;2023-09-18T09:05:52;13.23;;;11.88;;
46653;SDS011;38960;51.074;17.004;2023-09-18T09:08:17;10.00;;;9.10;;
46653;SDS011;38960;51.074;17.004;2023-09-18T09:10:43;13.40;;;12.25;;
46653;SDS011;38960;51.074;17.004;2023-09-18T09:13:09;13.13;;;11.43;;
46653;SDS011;38960;51.074;17.004;2023-09-18T09:15:42;11.10;;;10.20;;
46653;SDS011;38960;51.074;17.004;2023-09-18T09:18:13;13.95;;;13.05;;
46653;SDS011;38960;51.074;17.004;2023-09-18T09:20:52;22.92;;;20.70;;
46653;SDS011;38960;51.074;17.004;2023-09-18T09:23:19;12.30;;;8.13;;
46653;SDS011;38960;51.074;17.004;2023-09-18T09:25:44;14.55;;;13.35;;
46653;SDS011;38960;51.074;17.004;2023-09-18T09:28:10;24.95;;;22.92;;
46653;SDS011;38960;51.074;17.004;2023-09-18T09:30:35;16.45;;;15.15;;
46653;SDS011;38960;51.074;17.004;2023-09-18T09:33:02;13.48;;;12.25;;
46653;SDS011;38960;51.074;17.004;2023-09-18T09:35:33;17.02;;;15.82;;
46653;SDS011;38960;51.074;17.004;2023-09-18T09:38:02;18.55;;;17.25;;
46653;SDS011;38960;51.074;17.004;2023-09-18T09:40:32;29.02;;;27.00;;
46653;SDS011;38960;51.074;17.004;2023-09-18T09:43:00;23.23;;;21.42;;
46653;SDS011;38960;51.074;17.004;2023-09-18T09:45:29;22.42;;;20.67;;
46653;SDS011;38960;51.074;17.004;2023-09-18T09:47:56;22.77;;;21.23;;
46653;SDS011;38960;51.074;17.004;2023-09-18T09:50:23;21.40;;;19.65;;
46653;SDS011;38960;51.074;17.004;2023-09-18T09:52:51;21.77;;;20.38;;
46653;SDS011;38960;51.074;17.004;2023-09-18T09:57:57;22.65;;;18.27;;
46653;SDS011;38960;51.074;17.004;2023-09-18T10:00:29;19.33;;;17.73;;
46653;SDS011;38960;51.074;17.004;2023-09-18T10:03:09;25.70;;;23.92;;
46653;SDS011;38960;51.074;17.004;2023-09-18T10:05:36;35.50;;;33.20;;
46653;SDS011;38960;51.074;17.004;2023-09-18T10:08:08;12.00;;;10.93;;
46653;SDS011;38960;51.074;17.004;2023-09-18T10:10:36;7.63;;;6.88;;
46653;SDS011;38960;51.074;17.004;2023-09-18T10:13:07;8.45;;;7.65;;
46653;SDS011;38960;51.074;17.004;2023-09-18T10:15:35;12.00;;;7.53;;
46653;SDS011;38960;51.074;17.004;2023-09-18T10:18:05;8.80;;;6.47;;
46653;SDS011;38960;51.074;17.004;2023-09-18T10:20:36;8.60;;;7.63;;
46653;SDS011;38960;51.074;17.004;2023-09-18T10:23:09;14.05;;;7.85;;
46653;SDS011;38960;51.074;17.004;2023-09-18T10:25:43;12.57;;;7.93;;
46653;SDS011;38960;51.074;17.004;2023-09-18T10:28:09;13.20;;;7.45;;
46653;SDS011;38960;51.074;17.004;2023-09-18T10:30:37;13.88;;;7.22;;
46653;SDS011;38960;51.074;17.004;2023-09-18T10:33:03;9.63;;;7.22;;
46653;SDS011;38960;51.074;17.004;2023-09-18T10:35:28;7.63;;;6.97;;
46653;SDS011;38960;51.074;17.004;2023-09-18T10:37:54;8.68;;;7.15;;
46653;SDS011;38960;51.074;17.004;2023-09-18T10:40:20;8.55;;;7.78;;
46653;SDS011;38960;51.074;17.004;2023-09-18T10:42:47;9.98;;;8.05;;
46653;SDS011;38960;51.074;17.004;2023-09-18T10:45:13;9.73;;;7.13;;
46653;SDS011;38960;51.074;17.004;2023-09-18T10:47:44;8.43;;;7.63;;
46653;SDS011;38960;51.074;17.004;2023-09-18T10:50:12;12.80;;;7.88;;
46653;SDS011;38960;51.074;17.004;2023-09-18T10:52:43;9.95;;;8.32;;
46653;SDS011;38960;51.074;17.004;2023-09-18T10:55:13;16.67;;;7.75;;
46653;SDS011;38960;51.074;17.004;2023-09-18T10:57:52;14.30;;;9.05;;
46653;SDS011;38960;51.074;17.004;2023-09-18T11:00:21;13.23;;;11.77;;
46653;SDS011;38960;51.074;17.004;2023-09-18T11:02:53;11.95;;;10.77;;
46653;SDS011;38960;51.074;17.004;2023-09-18T11:05:39;12.52;;;11.30;;
46653;SDS011;38960;51.074;17.004;2023-09-18T11:10:58;15.20;;;13.80;;
46653;SDS011;38960;51.074;17.004;2023-09-18T11:13:46;18.63;;;16.13;;
46653;SDS011;38960;51.074;17.004;2023-09-18T11:19:08;14.40;;;13.10;;
46653;SDS011;38960;51.074;17.004;2023-09-18T11:21:36;16.80;;;13.48;;
46653;SDS011;38960;51.074;17.004;2023-09-18T11:26:34;13.98;;;10.98;;
46653;SDS011;38960;51.074;17.004;2023-09-18T11:29:01;15.23;;;11.98;;
46653;SDS011;38960;51.074;17.004;2023-09-18T11:31:43;17.47;;;15.93;;
46653;SDS011;38960;51.074;17.004;2023-09-18T11:34:15;21.70;;;12.52;;
46653;SDS011;38960;51.074;17.004;2023-09-18T11:36:59;13.82;;;12.50;;
46653;SDS011;38960;51.074;17.004;2023-09-18T11:39:38;12.98;;;11.45;;
46653;SDS011;38960;51.074;17.004;2023-09-18T11:44:36;12.10;;;10.90;;
46653;SDS011;38960;51.074;17.004;2023-09-18T11:47:10;13.60;;;12.43;;
46653;SDS011;38960;51.074;17.004;2023-09-18T11:49:42;11.63;;;10.63;;
46653;SDS011;38960;51.074;17.004;2023-09-18T11:52:13;11.35;;;10.35;;
46653;SDS011;38960;51.074;17.004;2023-09-18T11:54:39;11.27;;;10.18;;
46653;SDS011;38960;51.074;17.004;2023-09-18T11:57:06;12.32;;;8.85;;
46653;SDS011;38960;51.074;17.004;2023-09-18T11:59:36;9.90;;;8.93;;
46653;SDS011;38960;51.074;17.004;2023-09-18T12:02:03;12.32;;;9.98;;
46653;SDS011;38960;51.074;17.004;2023-09-18T12:04:31;8.35;;;7.65;;
46653;SDS011;38960;51.074;17.004;2023-09-18T12:06:58;12.50;;;9.10;;
46653;SDS011;38960;51.074;17.004;2023-09-18T12:09:31;13.88;;;4.80;;
46653;SDS011;38960;51.074;17.004;2023-09-18T12:12:01;11.02;;;4.68;;
46653;SDS011;38960;51.074;17.004;2023-09-18T12:16:58;6.63;;;4.50;;
46653;SDS011;38960;51.074;17.004;2023-09-18T12:19:25;9.30;;;4.60;;
46653;SDS011;38960;51.074;17.004;2023-09-18T12:21:51;12.02;;;4.35;;
46653;SDS011;38960;51.074;17.004;2023-09-18T12:24:23;5.25;;;3.90;;
46653;SDS011;38960;51.074;17.004;2023-09-18T12:26:50;7.22;;;4.15;;
46653;SDS011;38960;51.074;17.004;2023-09-18T12:29:17;7.57;;;4.68;;
46653;SDS011;38960;51.074;17.004;2023-09-18T12:31:42;8.98;;;5.10;;
46653;SDS011;38960;51.074;17.004;2023-09-18T12:34:29;5.85;;;4.30;;
46653;SDS011;38960;51.074;17.004;2023-09-18T12:36:54;8.13;;;4.40;;
46653;SDS011;38960;51.074;17.004;2023-09-18T12:39:20;9.50;;;4.60;;
46653;SDS011;38960;51.074;17.004;2023-09-18T12:41:46;10.90;;;4.32;;
46653;SDS011;38960;51.074;17.004;2023-09-18T12:44:12;6.10;;;4.57;;
46653;SDS011;38960;51.074;17.004;2023-09-18T12:46:42;7.88;;;4.20;;
46653;SDS011;38960;51.074;17.004;2023-09-18T12:49:21;7.75;;;4.15;;
46653;SDS011;38960;51.074;17.004;2023-09-18T12:54:38;9.48;;;4.13;;
46653;SDS011;38960;51.074;17.004;2023-09-18T12:57:07;8.93;;;4.53;;
46653;SDS011;38960;51.074;17.004;2023-09-18T12:59:37;7.35;;;4.70;;
46653;SDS011;38960;51.074;17.004;2023-09-18T13:02:03;8.02;;;5.53;;
46653;SDS011;38960;51.074;17.004;2023-09-18T13:04:34;5.72;;;4.50;;
46653;SDS011;38960;51.074;17.004;2023-09-18T13:07:14;9.77;;;4.47;;
46653;SDS011;38960;51.074;17.004;2023-09-18T13:09:40;10.43;;;5.55;;
46653;SDS011;38960;51.074;17.004;2023-09-18T13:12:06;10.00;;;5.22;;
46653;SDS011;38960;51.074;17.004;2023-09-18T13:17:44;6.85;;;4.78;;
46653;SDS011;38960;51.074;17.004;2023-09-18T13:20:18;8.30;;;4.90;;
46653;SDS011;38960;51.074;17.004;2023-09-18T13:22:50;8.48;;;4.72;;
46653;SDS011;38960;51.074;17.004;2023-09-18T13:25:20;6.45;;;4.35;;
46653;SDS011;38960;51.074;17.004;2023-09-18T13:27:47;8.13;;;5.30;;
46653;SDS011;38960;51.074;17.004;2023-09-18T13:30:13;9.43;;;4.68;;
46653;SDS011;38960;51.074;17.004;2023-09-18T13:32:42;8.55;;;4.90;;
46653;SDS011;38960;51.074;17.004;2023-09-18T13:35:09;6.05;;;5.00;;
46653;SDS011;38960;51.074;17.004;2023-09-18T13:37:36;7.18;;;4.60;;
46653;SDS011;38960;51.074;17.004;2023-09-18T13:40:03;14.15;;;5.10;;
46653;SDS011;38960;51.074;17.004;2023-09-18T13:42:32;9.50;;;4.47;;
46653;SDS011;38960;51.074;17.004;2023-09-18T13:44:58;11.80;;;5.03;;
46653;SDS011;38960;51.074;17.004;2023-09-18T13:47:29;13.10;;;4.70;;
46653;SDS011;38960;51.074;17.004;2023-09-18T13:49:55;8.23;;;4.15;;
46653;SDS011;38960;51.074;17.004;2023-09-18T13:52:22;5.60;;;4.40;;
46653;SDS011;38960;51.074;17.004;2023-09-18T13:54:48;8.32;;;4.63;;
46653;SDS011;38960;51.074;17.004;2023-09-18T13:57:19;8.98;;;4.70;;
46653;SDS011;38960;51.074;17.004;2023-09-18T13:59:45;11.27;;;4.70;;
46653;SDS011;38960;51.074;17.004;2023-09-18T14:02:12;8.43;;;4.40;;
46653;SDS011;38960;51.074;17.004;2023-09-18T14:04:38;9.90;;;5.38;;
46653;SDS011;38960;51.074;17.004;2023-09-18T14:07:04;6.00;;;4.43;;
46653;SDS011;38960;51.074;17.004;2023-09-18T14:09:31;11.27;;;5.15;;
46653;SDS011;38960;51.074;17.004;2023-09-18T14:11:56;11.52;;;4.65;;
46653;SDS011;38960;51.074;17.004;2023-09-18T14:14:22;7.97;;;4.93;;
46653;SDS011;38960;51.074;17.004;2023-09-18T14:16:48;11.25;;;5.13;;
46653;SDS011;38960;51.074;17.004;2023-09-18T14:19:15;10.00;;;4.82;;
46653;SDS011;38960;51.074;17.004;2023-09-18T14:21:41;8.55;;;4.55;;
46653;SDS011;38960;51.074;17.004;2023-09-18T14:24:07;9.15;;;5.15;;
46653;SDS011;38960;51.074;17.004;2023-09-18T14:26:33;7.53;;;5.22;;
46653;SDS011;38960;51.074;17.004;2023-09-18T14:29:06;12.57;;;5.10;;
46653;SDS011;38960;51.074;17.004;2023-09-18T14:31:38;9.10;;;5.17;;
46653;SDS011;38960;51.074;17.004;2023-09-18T14:34:04;4.90;;;4.40;;
46653;SDS011;38960;51.074;17.004;2023-09-18T14:36:34;7.10;;;5.30;;
46653;SDS011;38960;51.074;17.004;2023-09-18T14:39:01;6.78;;;5.35;;
46653;SDS011;38960;51.074;17.004;2023-09-18T14:41:29;6.13;;;4.78;;
46653;SDS011;38960;51.074;17.004;2023-09-18T14:43:55;10.23;;;5.10;;